Time;durP1;ratioP1;P1;durP2;ratioP2;P2;SDS_P1;SDS_P2;PMS_P1;PMS_P2;Temp;Humidity;BMP_temperature;BMP_pressure;BME280_temperature;BME280_humidity;BME280_pressure;Samples;Min_cycle;Max_cycle;Signal;HPM_P1;HPM_P2
2022/09/01 00:02:10;;;;;;;17.52;11.02;;;22.10;68.00;;;;;;5030735;28;20080;-73
2022/09/01 00:04:37;;;;;;;;;;;22.20;67.90;;;;;;5014998;28;20034;-72
2022/09/01 00:07:05;;;;;;;48.95;42.45;;;22.20;68.10;;;;;;5031943;28;19912;-72
2022/09/01 00:09:31;;;;;;;42.88;29.88;;;22.20;68.20;;;;;;5030325;28;20034;-73
2022/09/01 00:11:57;;;;;;;38.20;17.25;;;22.20;69.10;;;;;;5031933;28;20075;-73
2022/09/01 00:14:28;;;;;;;37.58;26.83;;;22.20;69.90;;;;;;5013629;28;20466;-72
2022/09/01 00:16:54;;;;;;;32.88;23.65;;;22.20;70.30;;;;;;5030707;28;20041;-73
2022/09/01 00:19:22;;;;;;;31.20;17.33;;;22.10;76.40;;;;;;5031289;28;20025;-73
2022/09/01 00:21:48;;;;;;;21.85;11.95;;;22.10;73.30;;;;;;5009968;28;20036;-72
2022/09/01 00:24:15;;;;;;;20.08;10.38;;;;;;;;;;5031822;28;20060;-73
2022/09/01 00:26:41;;;;;;;14.35;9.00;;;;;;;;;;5032737;28;20394;-73
2022/09/01 00:29:07;;;;;;;17.02;10.27;;;22.10;78.90;;;;;;4999388;28;20029;-74
2022/09/01 00:31:34;;;;;;;17.05;7.75;;;;;;;;;;5031977;28;20034;-74
2022/09/01 00:34:00;;;;;;;15.05;8.63;;;;;;;;;;5032987;28;20076;-74
2022/09/01 00:36:27;;;;;;;13.95;8.30;;;;;;;;;;5015407;28;20037;-75
2022/09/01 00:38:54;;;;;;;14.27;9.15;;;;;;;;;;5032335;28;20571;-74
2022/09/01 00:41:22;;;;;;;14.10;8.55;;;;;;;;;;5031878;28;20121;-74
2022/09/01 00:43:50;;;;;;;13.35;8.82;;;;;;;;;;5015890;28;20029;-74
2022/09/01 00:46:27;;;;;;;16.10;9.25;;;;;;;;;;5015998;28;20036;-75
2022/09/01 00:48:56;;;;;;;22.65;9.68;;;;;;;;;;5015859;28;20032;-75
2022/09/01 00:51:22;;;;;;;14.75;8.93;;;;;;;;;;5015976;28;20037;-75
2022/09/01 00:53:49;;;;;;;15.63;8.70;;;;;;;;;;5033421;28;20029;-75
2022/09/01 00:56:15;;;;;;;15.18;9.95;;;;;;;;;;5015828;28;20037;-75
2022/09/01 00:58:42;;;;;;;14.18;8.73;;;;;;;;;;5033076;28;20030;-74
2022/09/01 01:01:09;;;;;;;13.30;8.77;;;;;;;;;;5015538;28;20398;-73
2022/09/01 01:03:36;;;;;;;13.80;8.90;;;;;;;;;;5015287;28;20040;-74
2022/09/01 01:06:07;;;;;;;15.93;8.80;;;;;;;;;;5015495;28;20054;-73
2022/09/01 01:08:37;;;;;;;15.88;8.80;;;22.40;80.90;;;;;;5031827;28;20036;-73
2022/09/01 01:11:08;;;;;;;15.60;9.15;;;22.40;79.30;;;;;;5032340;28;20033;-74
2022/09/01 01:13:53;;;;;;;15.73;8.32;;;22.40;80.40;;;;;;5033093;28;20046;-74
2022/09/01 01:16:20;;;;;;;18.25;8.93;;;22.40;81.10;;;;;;5031694;28;20036;-74
2022/09/01 01:18:46;;;;;;;14.45;8.48;;;22.40;79.80;;;;;;5015082;28;20037;-73
2022/09/01 01:24:27;;;;;;;20.05;8.57;;;22.40;79.30;;;;;;5031466;28;20036;-74
2022/09/01 01:26:58;;;;;;;21.02;8.88;;;22.40;79.70;;;;;;5015256;28;20474;-73
2022/09/01 01:29:30;;;;;;;15.38;8.05;;;22.40;80.10;;;;;;5014974;28;20033;-74
2022/09/01 01:31:57;;;;;;;15.07;8.90;;;22.40;80.20;;;;;;4998955;28;20431;-73
2022/09/01 01:34:24;;;;;;;17.65;8.80;;;22.40;80.30;;;;;;5012134;23;20038;-81
2022/09/01 01:36:51;;;;;;;16.75;8.13;;;22.40;80.50;;;;;;5014852;28;20033;-81
2022/09/01 01:39:24;;;;;;;15.18;8.20;;;22.40;80.50;;;;;;5032404;28;20378;-80
2022/09/01 01:41:51;;;;;;;14.15;8.05;;;22.40;80.50;;;;;;5014963;28;20109;-80
2022/09/01 01:44:27;;;;;;;16.00;7.85;;;22.50;80.80;;;;;;5014796;28;20046;-80
2022/09/01 01:46:56;;;;;;;12.65;7.78;;;22.40;80.70;;;;;;5014857;28;20036;-80
2022/09/01 01:49:26;;;;;;;16.77;8.27;;;22.40;80.70;;;;;;5014423;28;20026;-81
2022/09/01 01:51:54;;;;;;;13.00;7.75;;;22.40;80.80;;;;;;5014771;28;20025;-81
2022/09/01 01:54:23;;;;;;;15.48;7.47;;;22.40;80.20;;;;;;4997864;28;20501;-81
2022/09/01 01:56:49;;;;;;;14.20;7.57;;;22.50;80.00;;;;;;5014747;28;20116;-81
2022/09/01 01:59:15;;;;;;;13.88;7.45;;;22.40;80.20;;;;;;5014350;28;20105;-80
2022/09/01 02:01:49;;;;;;;14.02;7.72;;;22.50;80.50;;;;;;5014755;28;20033;-80
2022/09/01 02:04:18;;;;;;;13.48;7.78;;;22.50;80.70;;;;;;5014523;28;20084;-80
2022/09/01 02:06:46;;;;;;;13.18;7.38;;;22.40;80.70;;;;;;5014497;28;20113;-81
2022/09/01 02:09:15;;;;;;;12.18;6.80;;;22.50;81.10;;;;;;5014385;28;20025;-81
2022/09/01 02:11:42;;;;;;;16.55;7.85;;;22.50;81.50;;;;;;5014417;28;20112;-81
2022/09/01 02:14:09;;;;;;;12.63;7.28;;;22.50;81.40;;;;;;5014328;28;20084;-82
2022/09/01 02:16:35;;;;;;;11.32;7.35;;;22.50;81.40;;;;;;5014518;28;20037;-82
2022/09/01 02:19:05;;;;;;;14.15;7.18;;;22.50;81.50;;;;;;4997783;28;20088;-81
2022/09/01 02:21:32;;;;;;;14.43;7.32;;;22.50;81.60;;;;;;5014306;28;20021;-83
2022/09/01 02:24:01;;;;;;;13.98;7.65;;;22.50;81.40;;;;;;5014306;28;20026;-82
2022/09/01 02:26:39;;;;;;;11.50;6.78;;;22.50;81.40;;;;;;4998232;28;20060;-82
2022/09/01 02:29:16;;;;;;;13.13;7.00;;;22.50;81.50;;;;;;5013896;28;20032;-82
2022/09/01 02:31:44;;;;;;;14.93;6.80;;;22.50;81.60;;;;;;5014261;28;20037;-82
2022/09/01 02:34:12;;;;;;;11.50;6.90;;;22.50;81.70;;;;;;5013995;28;20056;-82
2022/09/01 02:36:46;;;;;;;11.45;7.18;;;22.50;81.90;;;;;;5014127;28;20510;-81
2022/09/01 02:39:19;;;;;;;11.65;7.35;;;22.50;81.50;;;;;;5014026;28;20029;-81
2022/09/01 02:41:46;;;;;;;14.10;6.78;;;22.50;81.70;;;;;;5014274;28;20120;-81
2022/09/01 02:44:13;;;;;;;10.57;6.85;;;22.50;81.90;;;;;;5014015;28;20102;-82
2022/09/01 02:46:41;;;;;;;13.73;6.97;;;22.50;81.90;;;;;;4981652;28;20033;-82
2022/09/01 02:49:14;;;;;;;12.93;6.97;;;22.50;82.10;;;;;;5013911;28;20059;-82
2022/09/01 02:51:45;;;;;;;13.52;7.47;;;22.50;81.60;;;;;;5014079;28;20029;-81
2022/09/01 02:54:16;;;;;;;10.95;6.90;;;22.50;81.60;;;;;;5031493;28;20025;-81
2022/09/01 02:56:46;;;;;;;11.20;6.95;;;22.50;81.60;;;;;;5031633;28;20108;-81
2022/09/01 02:59:20;;;;;;;12.20;7.00;;;22.50;81.90;;;;;;4981244;28;20473;-80
2022/09/01 03:01:48;;;;;;;14.07;7.03;;;22.40;81.50;;;;;;5013793;28;20033;-81
2022/09/01 03:04:17;;;;;;;10.87;6.47;;;22.50;81.90;;;;;;5015047;28;20046;-81
2022/09/01 03:06:43;;;;;;;10.88;7.03;;;22.50;82.00;;;;;;5017791;28;20025;-82
2022/09/01 03:09:15;;;;;;;12.40;6.82;;;22.50;82.10;;;;;;5017626;28;20108;-82
2022/09/01 03:11:44;;;;;;;11.13;6.88;;;22.50;82.30;;;;;;5017689;28;20142;-81
2022/09/01 03:14:11;;;;;;;11.70;6.30;;;22.40;82.30;;;;;;5017622;28;20450;-81
2022/09/01 03:16:38;;;;;;;11.85;7.00;;;22.40;82.30;;;;;;5017525;28;20064;-81
2022/09/01 03:19:09;;;;;;;11.30;6.68;;;22.50;82.40;;;;;;5017298;28;20031;-81
2022/09/01 03:21:39;;;;;;;12.30;6.78;;;22.40;82.60;;;;;;5001378;28;20104;-82
2022/09/01 03:24:07;;;;;;;12.50;6.68;;;22.50;82.50;;;;;;5017437;28;20057;-82
2022/09/01 03:26:35;;;;;;;10.82;6.78;;;22.40;82.50;;;;;;5017547;28;20032;-82
2022/09/01 03:29:01;;;;;;;11.35;6.30;;;22.50;82.60;;;;;;5017415;28;20037;-82
2022/09/01 03:31:29;;;;;;;11.52;6.18;;;22.50;82.60;;;;;;5017354;28;20052;-82
2022/09/01 03:33:56;;;;;;;10.63;6.63;;;22.50;82.70;;;;;;5017236;28;20038;-82
2022/09/01 03:36:29;;;;;;;9.52;6.40;;;22.50;82.90;;;;;;5017485;28;20136;-82
2022/09/01 03:38:56;;;;;;;13.05;6.53;;;22.50;82.20;;;;;;5016908;28;20500;-82
2022/09/01 03:41:27;;;;;;;10.60;5.95;;;22.50;82.70;;;;;;5017272;28;20037;-82
2022/09/01 03:43:55;;;;;;;10.80;6.20;;;22.40;82.80;;;;;;5016993;28;20064;-82
2022/09/01 03:46:21;;;;;;;10.95;6.40;;;22.40;82.90;;;;;;5017022;28;20478;-81
2022/09/01 03:48:51;;;;;;;10.52;6.50;;;22.50;82.90;;;;;;5016741;28;20021;-81
2022/09/01 03:51:19;;;;;;;10.00;6.15;;;22.50;83.10;;;;;;5017113;28;20169;-81
2022/09/01 03:53:46;;;;;;;10.50;6.75;;;22.50;83.10;;;;;;5017036;28;20036;-81
2022/09/01 03:56:12;;;;;;;12.18;6.18;;;22.50;83.00;;;;;;5017032;28;20095;-81
2022/09/01 03:58:41;;;;;;;10.98;6.50;;;22.40;83.00;;;;;;5016350;28;20061;-81
2022/09/01 04:01:09;;;;;;;13.60;6.05;;;22.50;83.00;;;;;;5016943;28;20052;-81
2022/09/01 04:03:38;;;;;;;11.52;6.05;;;22.50;83.00;;;;;;5000623;28;20033;-81
2022/09/01 04:06:06;;;;;;;10.20;6.35;;;22.50;82.00;;;;;;5016710;28;20480;-81
2022/09/01 04:08:33;;;;;;;10.35;6.10;;;22.50;82.30;;;;;;5016271;28;20026;-81
2022/09/01 04:11:10;;;;;;;11.23;6.30;;;22.50;82.50;;;;;;5016756;28;20393;-81
2022/09/01 04:13:38;;;;;;;13.15;6.13;;;22.50;82.80;;;;;;5016561;28;20032;-81
2022/09/01 04:16:09;;;;;;;10.00;5.93;;;22.50;83.00;;;;;;5015868;28;20555;-81
2022/09/01 04:18:36;;;;;;;13.98;6.35;;;22.50;82.90;;;;;;5016221;28;20025;-79
2022/09/01 04:21:06;;;;;;;9.68;6.00;;;22.50;82.90;;;;;;5016422;28;20440;-79
2022/09/01 04:23:34;;;;;;;11.80;5.85;;;22.50;82.60;;;;;;5016119;28;20036;-80
2022/09/01 04:26:10;;;;;;;10.55;5.93;;;22.50;82.40;;;;;;5034390;28;20032;-80
2022/09/01 04:28:44;;;;;;;10.70;5.57;;;22.50;82.60;;;;;;5016153;28;20474;-80
2022/09/01 04:31:17;;;;;;;11.10;5.82;;;22.50;82.70;;;;;;5016409;28;20033;-80
2022/09/01 04:33:46;;;;;;;8.77;5.68;;;22.50;82.80;;;;;;5016096;28;20406;-81
2022/09/01 04:36:32;;;;;;;8.82;5.57;;;22.50;82.90;;;;;;5015047;28;20112;-79
2022/09/01 04:39:00;;;;;;;13.05;5.82;;;22.50;82.80;;;;;;5015911;28;20041;-79
2022/09/01 04:41:32;;;;;;;9.80;5.50;;;22.40;82.50;;;;;;4999783;28;20037;-80
2022/09/01 04:44:03;;;;;;;8.90;5.65;;;22.50;82.70;;;;;;5016581;28;20025;-79
2022/09/01 04:46:41;;;;;;;8.45;5.03;;;22.40;82.80;;;;;;5015956;28;20030;-79
2022/09/01 04:49:09;;;;;;;10.05;5.53;;;22.40;82.60;;;;;;5015867;28;20033;-79
2022/09/01 04:51:40;;;;;;;9.38;5.20;;;22.40;82.80;;;;;;5015974;28;20026;-79
2022/09/01 04:54:10;;;;;;;14.52;6.05;;;22.40;82.70;;;;;;5015872;28;20055;-79
2022/09/01 04:56:38;;;;;;;13.02;6.47;;;22.40;82.90;;;;;;5015779;28;20033;-79
2022/09/01 04:59:19;;;;;;;11.00;5.72;;;22.40;82.90;;;;;;5015482;28;20036;-79
2022/09/01 05:01:49;;;;;;;11.38;5.95;;;22.50;82.90;;;;;;5012879;28;20038;-79
2022/09/01 05:04:18;;;;;;;9.88;5.50;;;22.50;83.10;;;;;;5032919;28;20116;-79
2022/09/01 05:06:48;;;;;;;10.77;5.47;;;22.50;83.10;;;;;;5051826;28;20481;-79
2022/09/01 05:09:16;;;;;;;11.43;5.50;;;22.40;83.00;;;;;;5035200;28;20057;-79
2022/09/01 05:12:00;;;;;;;8.90;5.20;;;22.40;83.00;;;;;;5055563;28;20388;-80
2022/09/01 05:14:28;;;;;;;8.50;5.38;;;22.50;83.00;;;;;;5054745;28;20037;-79
2022/09/01 05:16:57;;;;;;;9.32;5.10;;;22.40;82.80;;;;;;5038515;28;20033;-79
2022/09/01 05:19:27;;;;;;;9.73;5.40;;;22.40;82.70;;;;;;5036988;28;20063;-79
2022/09/01 05:21:57;;;;;;;10.85;5.47;;;22.50;82.80;;;;;;5035503;28;20025;-80
2022/09/01 05:24:33;;;;;;;13.25;5.72;;;22.40;82.80;;;;;;5034984;28;20037;-79
2022/09/01 05:27:06;;;;;;;9.98;5.22;;;22.40;82.90;;;;;;5034893;28;20485;-79
2022/09/01 05:29:37;;;;;;;9.10;5.40;;;22.40;82.90;;;;;;5034649;28;20029;-81
2022/09/01 05:32:08;;;;;;;10.13;5.20;;;22.40;82.90;;;;;;5034863;28;20075;-81
2022/09/01 05:34:37;;;;;;;9.55;5.30;;;22.40;83.00;;;;;;5034756;28;20064;-81
2022/09/01 05:37:07;;;;;;;7.80;4.80;;;22.50;83.10;;;;;;5034930;28;20040;-81
2022/09/01 05:39:35;;;;;;;9.02;5.50;;;22.40;83.30;;;;;;5034573;28;20112;-81
2022/09/01 05:42:03;;;;;;;10.98;4.82;;;22.40;83.30;;;;;;5034989;28;20033;-81
2022/09/01 05:44:29;;;;;;;8.93;5.03;;;22.40;83.30;;;;;;5018041;28;20086;-81
2022/09/01 05:46:58;;;;;;;9.95;5.05;;;22.50;83.40;;;;;;5034480;28;20086;-82
2022/09/01 05:49:27;;;;;;;9.13;5.32;;;22.50;83.70;;;;;;5017993;28;20025;-80
2022/09/01 05:51:56;;;;;;;11.68;5.30;;;22.50;83.50;;;;;;5052479;28;20024;-80
2022/09/01 05:54:26;;;;;;;8.05;4.90;;;22.40;83.20;;;;;;5034529;28;20036;-80
2022/09/01 05:56:56;;;;;;;8.35;4.70;;;22.50;83.40;;;;;;5034481;28;20397;-81
2022/09/01 05:59:26;;;;;;;9.88;5.57;;;22.50;83.40;;;;;;5034029;28;20032;-80
2022/09/01 06:02:22;;;;;;;12.18;5.55;;;22.50;83.50;;;;;;5035069;28;20515;-80
2022/09/01 06:04:49;;;;;;;13.07;5.13;;;22.50;83.40;;;;;;5034269;28;20382;-81
2022/09/01 06:07:22;;;;;;;9.40;5.13;;;22.50;83.60;;;;;;5034210;28;20060;-81
2022/09/01 06:09:52;;;;;;;11.75;5.18;;;22.50;83.70;;;;;;5017950;28;20417;-81
2022/09/01 06:12:22;;;;;;;7.65;4.45;;;22.50;83.60;;;;;;5051004;28;20029;-81
2022/09/01 06:14:51;;;;;;;11.95;5.07;;;22.50;83.40;;;;;;5017842;28;20460;-82
2022/09/01 06:17:23;;;;;;;7.63;4.57;;;22.50;83.70;;;;;;5034291;28;20040;-81
2022/09/01 06:19:56;;;;;;;12.70;4.88;;;22.50;84.00;;;;;;5001255;28;20079;-81
2022/09/01 06:22:26;;;;;;;10.98;5.40;;;22.50;80.50;;;;;;5051800;28;20389;-82
2022/09/01 06:24:53;;;;;;;8.35;4.90;;;22.50;80.70;;;;;;5033904;28;20033;-82
2022/09/01 06:27:20;;;;;;;10.18;4.65;;;22.50;80.20;;;;;;5034169;28;20025;-82
2022/09/01 06:29:53;;;;;;;15.48;4.97;;;22.50;79.70;;;;;;5033748;28;20049;-82
2022/09/01 06:32:19;;;;;;;7.97;4.88;;;22.50;80.00;;;;;;5034104;28;20409;-83
2022/09/01 06:34:49;;;;;;;10.27;5.03;;;22.50;79.80;;;;;;5017343;28;20044;-83
2022/09/01 06:37:21;;;;;;;9.02;4.30;;;22.50;80.00;;;;;;5034076;28;20037;-83
2022/09/01 06:39:48;;;;;;;7.68;4.72;;;22.50;80.10;;;;;;5016625;28;20100;-81
2022/09/01 06:42:14;;;;;;;10.25;5.07;;;22.50;80.20;;;;;;5034182;28;20039;-81
2022/09/01 06:44:51;;;;;;;12.10;5.10;;;22.40;80.10;;;;;;5033689;28;20124;-81
2022/09/01 06:47:18;;;;;;;10.88;4.72;;;22.50;80.30;;;;;;5034104;28;20029;-81
2022/09/01 06:49:44;;;;;;;9.45;4.70;;;22.50;80.40;;;;;;5033458;28;20028;-78
2022/09/01 06:52:16;;;;;;;8.13;4.75;;;22.50;80.40;;;;;;5034287;28;20036;-78
2022/09/01 06:54:43;;;;;;;13.98;4.97;;;22.50;80.40;;;;;;5033549;28;20087;-78
2022/09/01 06:57:09;;;;;;;11.20;4.40;;;22.50;80.50;;;;;;5033914;28;20072;-78
2022/09/01 06:59:35;;;;;;;8.35;4.53;;;22.50;79.80;;;;;;5033301;28;20067;-78
2022/09/01 07:02:03;;;;;;;7.53;4.57;;;22.50;79.90;;;;;;5001228;28;20136;-78
2022/09/01 07:04:48;;;;;;;7.80;4.38;;;22.50;79.70;;;;;;5051266;28;20029;-78
2022/09/01 07:07:15;;;;;;;9.63;4.40;;;22.50;79.60;;;;;;5033927;28;20029;-79
2022/09/01 07:09:59;;;;;;;8.30;4.50;;;22.50;79.30;;;;;;5033191;28;20064;-78
2022/09/01 07:12:36;;;;;;;8.43;4.32;;;22.50;79.30;;;;;;5033579;28;20064;-79
2022/09/01 07:15:03;;;;;;;7.40;4.32;;;22.60;79.60;;;;;;5033461;28;20112;-79
2022/09/01 07:17:29;;;;;;;6.82;4.25;;;22.50;79.50;;;;;;5033541;28;20037;-80
2022/09/01 07:19:57;;;;;;;6.43;4.20;;;22.50;79.60;;;;;;5033343;28;20112;-80
2022/09/01 07:22:24;;;;;;;7.82;4.28;;;22.60;79.80;;;;;;5050187;28;20029;-80
2022/09/01 07:24:56;;;;;;;9.25;4.78;;;22.60;80.00;;;;;;5033136;28;20033;-81
2022/09/01 07:27:49;;;;;;;9.25;4.70;;;22.60;79.80;;;;;;5033469;28;20036;-81
2022/09/01 07:30:20;;;;;;;8.93;4.63;;;22.60;80.70;;;;;;5033098;28;20075;-81
2022/09/01 07:32:47;;;;;;;8.05;4.43;;;22.60;79.90;;;;;;5033482;28;20060;-80
2022/09/01 07:35:18;;;;;;;13.80;5.20;;;22.60;79.60;;;;;;5019244;22;20405;-74
2022/09/01 07:37:47;;;;;;;11.25;4.60;;;22.60;80.90;;;;;;4991657;28;20036;-72
2022/09/01 07:40:17;;;;;;;10.30;4.60;;;22.70;81.00;;;;;;5013020;28;20079;-72
2022/09/01 07:43:23;;;;;;;10.25;4.72;;;22.70;80.10;;;;;;5030815;28;20038;-72
2022/09/01 07:46:08;;;;;;;11.40;4.40;;;22.60;78.90;;;;;;5031012;28;20029;-72
2022/09/01 07:48:34;;;;;;;11.10;4.88;;;22.60;79.10;;;;;;5013148;28;20060;-72
2022/09/01 07:51:00;;;;;;;11.48;4.47;;;22.60;78.90;;;;;;5022786;28;20046;-71
2022/09/01 07:53:30;;;;;;;8.32;3.80;;;22.60;78.20;;;;;;4998004;28;20045;-72
2022/09/01 07:55:59;;;;;;;9.65;3.88;;;22.60;78.10;;;;;;5000545;28;20040;-72
2022/09/01 07:58:28;;;;;;;13.80;4.38;;;22.70;78.60;;;;;;5016433;28;20493;-72
2022/09/01 08:01:03;;;;;;;5.38;3.65;;;22.70;77.70;;;;;;5015877;28;20070;-72
2022/09/01 08:03:29;;;;;;;10.70;4.13;;;22.70;78.10;;;;;;5016589;28;20481;-72
2022/09/01 08:06:02;;;;;;;8.05;3.63;;;22.70;77.60;;;;;;5034236;28;20075;-71
2022/09/01 08:08:28;;;;;;;9.93;3.40;;;22.70;77.40;;;;;;5016163;28;20108;-72
2022/09/01 08:10:55;;;;;;;7.20;3.45;;;22.70;77.60;;;;;;5016469;28;20021;-72
2022/09/01 08:13:21;;;;;;;8.43;3.60;;;22.70;77.80;;;;;;5016489;28;20031;-72
2022/09/01 08:15:47;;;;;;;7.30;3.58;;;22.80;77.50;;;;;;5016450;28;20029;-71
2022/09/01 08:18:14;;;;;;;10.80;3.33;;;22.80;78.00;;;;;;5032650;28;20040;-72
2022/09/01 08:20:44;;;;;;;7.68;3.08;;;22.80;77.40;;;;;;5016108;28;20030;-72
2022/09/01 08:23:28;;;;;;;7.53;3.20;;;22.80;77.60;;;;;;5033681;28;20124;-71
2022/09/01 08:25:54;;;;;;;9.13;3.05;;;22.80;77.40;;;;;;4999996;28;20501;-71
2022/09/01 08:28:20;;;;;;;4.43;2.30;;;22.80;77.10;;;;;;5016213;28;20096;-71
2022/09/01 08:30:49;;;;;;;5.78;2.63;;;22.80;77.10;;;;;;4999876;28;20036;-72
2022/09/01 08:33:17;;;;;;;4.13;2.03;;;22.80;76.80;;;;;;5015832;28;20127;-71
2022/09/01 08:35:48;;;;;;;5.55;2.13;;;22.80;76.20;;;;;;5016036;28;20371;-71
2022/09/01 08:38:14;;;;;;;;;;;22.80;75.70;;;;;;5016397;28;20029;-71
2022/09/01 08:40:49;;;;;;;5.20;2.63;;;22.80;75.70;;;;;;4999263;28;19916;-71
2022/09/01 08:43:41;;;;;;;4.03;1.95;;;22.80;76.80;;;;;;5032152;28;20060;-71
2022/09/01 08:46:23;;;;;;;3.85;1.83;;;22.80;76.40;;;;;;5032499;28;20105;-72
2022/09/01 08:48:54;;;;;;;4.40;1.67;;;22.80;76.30;;;;;;4999475;28;20037;-72
2022/09/01 08:51:50;;;;;;;4.15;1.90;;;22.80;75.80;;;;;;5015239;28;20049;-71
2022/09/01 08:54:56;;;;;;;3.17;1.52;;;22.80;76.30;;;;;;5017878;28;20430;-71
2022/09/01 08:57:33;;;;;;;8.00;1.85;;;22.80;75.80;;;;;;5015776;28;20053;-71
2022/09/01 09:00:24;;;;;;;;;;;22.90;75.30;;;;;;5013727;28;20033;-71
2022/09/01 09:03:28;;;;;;;47.30;31.83;;;22.90;75.00;;;;;;4981006;28;19916;-71
2022/09/01 09:05:57;;;;;;;33.42;21.95;;;22.90;74.80;;;;;;5031236;28;20037;-71
2022/09/01 09:08:51;;;;;;;24.30;13.83;;;22.90;73.60;;;;;;4998628;28;20045;-70
2022/09/01 09:11:45;;;;;;;21.33;13.85;;;22.90;75.30;;;;;;5014358;28;20048;-71
2022/09/01 09:14:45;;;;;;;18.50;10.95;;;22.90;74.80;;;;;;4997074;28;20042;-70
2022/09/01 09:17:14;;;;;;;21.10;10.30;;;22.90;74.70;;;;;;5031722;28;20022;-71
2022/09/01 09:19:42;;;;;;;16.77;8.77;;;22.90;74.50;;;;;;4998441;28;20037;-72
2022/09/01 09:22:13;;;;;;;22.60;10.10;;;22.90;73.90;;;;;;5031642;28;20116;-71
2022/09/01 09:25:17;;;;;;;13.82;8.15;;;22.90;74.60;;;;;;5014693;28;20448;-71
2022/09/01 09:27:48;;;;;;;25.67;14.32;;;22.90;74.30;;;;;;4998305;28;20374;-71
2022/09/01 09:30:22;;;;;;;32.45;18.17;;;22.90;74.20;;;;;;5032423;28;20029;-70
2022/09/01 09:32:59;;;;;;;85.22;63.15;;;22.80;74.00;;;;;;4998519;28;20060;-71
2022/09/01 09:35:35;;;;;;;62.10;48.38;;;22.80;74.20;;;;;;5031541;28;20026;-70
2022/09/01 09:38:27;;;;;;;53.08;41.05;;;22.90;73.90;;;;;;5014303;28;20390;-70
2022/09/01 09:41:04;;;;;;;43.50;33.72;;;22.90;73.20;;;;;;5014706;28;20040;-70
2022/09/01 09:43:35;;;;;;;38.08;26.85;;;22.90;72.40;;;;;;5032466;28;20065;-71
2022/09/01 09:46:23;;;;;;;37.47;26.50;;;22.90;72.60;;;;;;5014696;28;20473;-71
2022/09/01 09:49:10;;;;;;;32.90;24.67;;;23.00;72.50;;;;;;5032085;28;20030;-71
2022/09/01 09:51:39;;;;;;;33.10;23.98;;;23.00;72.90;;;;;;5031008;28;20087;-71
2022/09/01 09:54:26;;;;;;;34.50;26.30;;;22.90;72.60;;;;;;5014691;28;20128;-71
2022/09/01 09:57:07;;;;;;;32.05;24.05;;;22.90;73.10;;;;;;5032266;28;20029;-69
2022/09/01 09:59:53;;;;;;;33.85;25.27;;;22.90;73.20;;;;;;5032064;28;20045;-71
2022/09/01 10:02:25;;;;;;;33.88;24.45;;;22.90;73.70;;;;;;4995855;28;20112;-71
2022/09/01 10:04:53;;;;;;;29.88;22.27;;;22.80;74.10;;;;;;4995101;28;21214;-73
2022/09/01 10:07:35;;;;;;;28.33;21.65;;;22.80;73.70;;;;;;5009927;28;20064;-72
2022/09/01 10:10:06;;;;;;;32.80;25.15;;;22.80;74.10;;;;;;4995656;28;20033;-72
2022/09/01 10:12:32;;;;;;;29.08;20.17;;;22.70;74.90;;;;;;5028974;28;20072;-72
2022/09/01 10:15:07;;;;;;;25.05;17.65;;;22.70;74.10;;;;;;5010817;28;20493;-72
2022/09/01 10:17:42;;;;;;;26.35;16.88;;;22.70;73.90;;;;;;4995523;28;20040;-72
2022/09/01 10:20:19;;;;;;;23.65;15.43;;;22.70;73.70;;;;;;5007321;28;20037;-72
2022/09/01 10:22:47;;;;;;;29.02;15.93;;;22.70;73.80;;;;;;5010038;28;20506;-72
2022/09/01 10:25:18;;;;;;;23.00;13.93;;;22.70;74.10;;;;;;5011351;28;20042;-72
2022/09/01 10:27:48;;;;;;;24.63;14.27;;;22.70;74.10;;;;;;5009525;28;20030;-72
2022/09/01 10:30:20;;;;;;;22.60;11.18;;;22.70;74.20;;;;;;5009628;28;20029;-72
2022/09/01 10:32:55;;;;;;;21.70;10.68;;;22.70;73.60;;;;;;5028097;28;20028;-72
2022/09/01 10:35:28;;;;;;;24.65;9.60;;;22.70;74.10;;;;;;5022992;28;20045;-72
2022/09/01 10:37:57;;;;;;;24.98;8.70;;;22.70;73.80;;;;;;5037064;28;20511;-75
2022/09/01 10:40:27;;;;;;;14.63;5.50;;;22.70;73.10;;;;;;4977536;28;20038;-75
2022/09/01 10:42:56;;;;;;;;;;;22.70;71.70;;;;;;4978256;28;20040;-74
2022/09/01 10:45:57;;;;;;;18.83;8.43;;;22.70;72.90;;;;;;4993644;28;20370;-75
2022/09/01 10:48:28;;;;;;;19.02;8.70;;;22.70;73.50;;;;;;5007713;28;20041;-75
2022/09/01 10:51:13;;;;;;;16.58;7.47;;;22.70;74.00;;;;;;4994386;28;20037;-74
2022/09/01 10:53:49;;;;;;;19.77;8.63;;;22.70;73.80;;;;;;5012002;28;20044;-75
2022/09/01 10:56:22;;;;;;;15.50;7.70;;;22.70;74.50;;;;;;4994625;28;20034;-75
2022/09/01 10:59:25;;;;;;;16.08;8.07;;;22.70;74.20;;;;;;5011584;28;20552;-75
2022/09/01 11:01:51;;;;;;;14.50;7.38;;;22.70;74.20;;;;;;5011843;28;20508;-75
2022/09/01 11:04:20;;;;;;;12.48;7.53;;;22.60;74.10;;;;;;4994144;28;20038;-75
2022/09/01 11:07:05;;;;;;;11.93;7.13;;;22.70;74.20;;;;;;5011839;28;20437;-75
2022/09/01 11:09:47;;;;;;;13.98;6.80;;;22.70;74.20;;;;;;5011549;28;20500;-74
2022/09/01 11:12:17;;;;;;;16.17;7.38;;;22.70;74.00;;;;;;5011757;28;20471;-75
2022/09/01 11:14:55;;;;;;;11.63;7.00;;;22.70;74.30;;;;;;5011627;28;20097;-75
2022/09/01 11:17:30;;;;;;;10.98;7.10;;;22.70;74.30;;;;;;4994228;28;20334;-73
2022/09/01 11:20:09;;;;;;;12.90;7.30;;;22.70;74.10;;;;;;5011354;28;20164;-73
2022/09/01 11:22:45;;;;;;;12.43;6.88;;;22.70;74.30;;;;;;5011832;28;20103;-74
2022/09/01 11:25:34;;;;;;;11.45;6.43;;;22.70;74.40;;;;;;4994922;28;20022;-74
2022/09/01 11:28:03;;;;;;;11.40;6.82;;;22.70;74.40;;;;;;5015323;28;20044;-74
2022/09/01 11:30:53;;;;;;;10.63;6.40;;;22.70;74.40;;;;;;5014924;28;20109;-74
2022/09/01 11:33:31;;;;;;;11.15;6.57;;;22.70;74.30;;;;;;4997708;28;20133;-74
2022/09/01 11:36:04;;;;;;;11.20;6.63;;;22.70;74.40;;;;;;4997836;28;20030;-74
2022/09/01 11:38:42;;;;;;;11.57;6.70;;;22.70;74.40;;;;;;5014999;28;20482;-74
2022/09/01 11:41:18;;;;;;;10.25;6.13;;;22.70;74.90;;;;;;4997546;28;20030;-74
2022/09/01 11:43:44;;;;;;;10.20;6.13;;;22.70;74.50;;;;;;4997507;28;20116;-74
2022/09/01 11:46:24;;;;;;;9.15;5.55;;;22.70;74.50;;;;;;5014933;28;20455;-73
2022/09/01 11:48:50;;;;;;;11.38;6.32;;;22.70;74.50;;;;;;4981208;28;20037;-74
2022/09/01 11:51:16;;;;;;;9.38;5.82;;;22.70;74.60;;;;;;4997753;28;20105;-75
2022/09/01 11:53:43;;;;;;;11.48;6.28;;;22.70;74.50;;;;;;4997511;28;20162;-75
2022/09/01 11:56:23;;;;;;;10.90;6.25;;;22.70;74.70;;;;;;5014562;28;20040;-75
2022/09/01 11:58:49;;;;;;;15.20;6.65;;;22.70;75.00;;;;;;5026445;28;20497;-76
2022/09/01 12:01:21;;;;;;;12.15;6.55;;;22.70;74.70;;;;;;5034287;28;20104;-75
2022/09/01 12:03:49;;;;;;;10.80;6.10;;;22.70;74.80;;;;;;5016625;28;20033;-75
2022/09/01 12:06:25;;;;;;;14.03;6.20;;;22.70;75.10;;;;;;5015924;28;20081;-73
2022/09/01 12:08:56;;;;;;;13.55;6.20;;;22.70;75.30;;;;;;4991113;28;20265;-75
2022/09/01 12:11:29;;;;;;;18.10;6.13;;;22.70;75.40;;;;;;5020063;28;20030;-75
2022/09/01 12:14:21;;;;;;;14.70;6.60;;;22.70;75.70;;;;;;5012239;28;20022;-75
2022/09/01 12:17:00;;;;;;;12.73;5.85;;;22.70;75.50;;;;;;4994364;28;20053;-75
2022/09/01 12:19:30;;;;;;;11.32;5.68;;;22.70;75.60;;;;;;5042529;28;20025;-75
2022/09/01 12:22:13;;;;;;;14.80;6.30;;;22.70;75.50;;;;;;5030946;28;20079;-75
2022/09/01 12:24:45;;;;;;;15.00;6.25;;;22.70;75.50;;;;;;5032069;28;20599;-75
2022/09/01 12:27:12;;;;;;;10.85;5.80;;;22.70;75.70;;;;;;5015572;28;20033;-73
2022/09/01 12:29:38;;;;;;;17.63;6.35;;;22.70;75.60;;;;;;5033441;28;20029;-73
2022/09/01 12:32:04;;;;;;;13.32;5.75;;;22.70;75.80;;;;;;5037840;28;20021;-74
2022/09/01 12:34:40;;;;;;;13.65;5.90;;;22.70;75.80;;;;;;5019293;28;20425;-73
2022/09/01 12:37:20;;;;;;;17.85;6.13;;;22.70;75.90;;;;;;5034410;28;20049;-74
2022/09/01 12:39:49;;;;;;;13.95;5.90;;;22.70;76.00;;;;;;5030789;28;20068;-74
2022/09/01 12:42:18;;;;;;;15.52;6.05;;;22.70;75.80;;;;;;5031236;28;20064;-75
2022/09/01 12:45:01;;;;;;;12.63;5.72;;;22.70;76.00;;;;;;5029410;28;20034;-75
2022/09/01 12:47:34;;;;;;;12.05;5.93;;;22.70;75.90;;;;;;5013536;28;20026;-74
2022/09/01 12:50:05;;;;;;;12.93;6.22;;;22.70;76.00;;;;;;5013477;28;20128;-74
2022/09/01 12:52:33;;;;;;;11.52;5.30;;;22.70;76.00;;;;;;5032920;28;20036;-74
2022/09/01 12:55:05;;;;;;;9.02;5.18;;;22.70;75.90;;;;;;5032459;28;20400;-76
2022/09/01 12:57:35;;;;;;;11.98;6.13;;;22.70;76.10;;;;;;5015823;28;20056;-75
2022/09/01 13:00:22;;;;;;;11.57;6.05;;;22.70;76.10;;;;;;5033193;28;20041;-75
2022/09/01 13:03:07;;;;;;;13.35;5.88;;;22.70;76.10;;;;;;5016052;28;20057;-75
2022/09/01 13:05:49;;;;;;;12.10;5.70;;;22.70;76.10;;;;;;5033545;28;20064;-75
2022/09/01 13:08:21;;;;;;;11.07;5.90;;;22.70;76.10;;;;;;5015859;28;20052;-76
2022/09/01 13:11:00;;;;;;;13.07;5.68;;;22.70;76.00;;;;;;5048307;28;20473;-74
2022/09/01 13:13:27;;;;;;;9.33;5.33;;;22.70;76.10;;;;;;5048622;28;20018;-74
2022/09/01 13:15:58;;;;;;;26.50;6.65;;;22.70;77.20;;;;;;5048510;28;20032;-75